sensor_id;sensor_type;location;lat;lon;timestamp;pressure;altitude;pressure_sealevel;temperature;humidity
12471;BME280;36499;46.484;13.832;2022-12-18T00:01:18;94170.84;;;2.19;78.68
12471;BME280;36499;46.484;13.832;2022-12-18T00:03:46;94172.63;;;2.09;78.87
12471;BME280;36499;46.484;13.832;2022-12-18T00:06:14;94181.53;;;2.15;78.36
12471;BME280;36499;46.484;13.832;2022-12-18T00:08:42;94187.78;;;2.12;78.86
12471;BME280;36499;46.484;13.832;2022-12-18T00:11:13;94187.78;;;2.12;77.96
12471;BME280;36499;46.484;13.832;2022-12-18T00:13:41;94187.63;;;2.14;78.51
12471;BME280;36499;46.484;13.832;2022-12-18T00:16:12;94187.88;;;1.91;78.77
12471;BME280;36499;46.484;13.832;2022-12-18T00:18:40;94196.28;;;1.93;79.42
12471;BME280;36499;46.484;13.832;2022-12-18T00:21:10;94194.38;;;1.96;79.71
12471;BME280;36499;46.484;13.832;2022-12-18T00:23:39;94187.63;;;2.04;78.78
12471;BME280;36499;46.484;13.832;2022-12-18T00:26:11;94199.56;;;2.05;78.78
12471;BME280;36499;46.484;13.832;2022-12-18T00:28:38;94189.13;;;2.07;79.44
12471;BME280;36499;46.484;13.832;2022-12-18T00:31:09;94189.25;;;2.05;79.35
12471;BME280;36499;46.484;13.832;2022-12-18T00:33:36;94194.25;;;2.07;79.32
12471;BME280;36499;46.484;13.832;2022-12-18T00:36:07;94188.16;;;2.08;78.94
12471;BME280;36499;46.484;13.832;2022-12-18T00:38:36;94199.53;;;1.86;79.29
12471;BME280;36499;46.484;13.832;2022-12-18T00:41:04;94192.91;;;1.93;79.94
12471;BME280;36499;46.484;13.832;2022-12-18T00:43:34;94193.28;;;1.98;79.72
12471;BME280;36499;46.484;13.832;2022-12-18T00:46:01;94197.66;;;1.98;79.26
12471;BME280;36499;46.484;13.832;2022-12-18T00:48:29;94190.31;;;1.93;78.92
12471;BME280;36499;46.484;13.832;2022-12-18T00:50:56;94198.41;;;1.69;80.22
12471;BME280;36499;46.484;13.832;2022-12-18T00:53:23;94199.69;;;1.94;79.08
12471;BME280;36499;46.484;13.832;2022-12-18T00:55:50;94200.06;;;1.89;79.67
12471;BME280;36499;46.484;13.832;2022-12-18T00:58:18;94200.47;;;1.94;79.50
12471;BME280;36499;46.484;13.832;2022-12-18T01:00:45;94201.00;;;1.98;78.94
12471;BME280;36499;46.484;13.832;2022-12-18T01:03:13;94197.50;;;1.89;79.85
12471;BME280;36499;46.484;13.832;2022-12-18T01:05:42;94199.78;;;2.02;79.58
12471;BME280;36499;46.484;13.832;2022-12-18T01:08:09;94208.72;;;1.98;78.63
12471;BME280;36499;46.484;13.832;2022-12-18T01:10:39;94216.19;;;2.01;79.25
12471;BME280;36499;46.484;13.832;2022-12-18T01:13:07;94210.63;;;2.06;78.52
12471;BME280;36499;46.484;13.832;2022-12-18T01:15:34;94210.75;;;1.94;79.22
12471;BME280;36499;46.484;13.832;2022-12-18T01:18:01;94213.84;;;1.98;78.89
12471;BME280;36499;46.484;13.832;2022-12-18T01:20:28;94220.38;;;1.92;78.84
12471;BME280;36499;46.484;13.832;2022-12-18T01:22:56;94218.72;;;1.91;78.41
12471;BME280;36499;46.484;13.832;2022-12-18T01:25:23;94227.81;;;1.96;78.31
12471;BME280;36499;46.484;13.832;2022-12-18T01:27:51;94227.13;;;1.93;78.03
12471;BME280;36499;46.484;13.832;2022-12-18T01:30:18;94233.72;;;1.77;78.53
12471;BME280;36499;46.484;13.832;2022-12-18T01:32:45;94242.56;;;1.93;79.09
12471;BME280;36499;46.484;13.832;2022-12-18T01:35:12;94243.06;;;1.87;78.65
12471;BME280;36499;46.484;13.832;2022-12-18T01:37:39;94244.72;;;1.88;78.71
12471;BME280;36499;46.484;13.832;2022-12-18T01:40:09;94244.72;;;1.88;78.85
12471;BME280;36499;46.484;13.832;2022-12-18T01:42:37;94253.34;;;1.87;78.79
12471;BME280;36499;46.484;13.832;2022-12-18T01:45:22;94248.38;;;1.96;78.72
12471;BME280;36499;46.484;13.832;2022-12-18T01:47:53;94245.81;;;1.96;78.26
12471;BME280;36499;46.484;13.832;2022-12-18T01:50:24;94247.56;;;1.95;78.47
12471;BME280;36499;46.484;13.832;2022-12-18T01:52:57;94249.56;;;1.82;78.13
12471;BME280;36499;46.484;13.832;2022-12-18T01:55:30;94256.72;;;1.78;78.43
12471;BME280;36499;46.484;13.832;2022-12-18T01:57:59;94250.38;;;1.82;78.40
12471;BME280;36499;46.484;13.832;2022-12-18T02:00:28;94262.09;;;1.75;78.95
12471;BME280;36499;46.484;13.832;2022-12-18T02:02:56;94257.50;;;1.60;79.73
12471;BME280;36499;46.484;13.832;2022-12-18T02:05:36;94261.59;;;1.41;79.50
12471;BME280;36499;46.484;13.832;2022-12-18T02:08:12;94256.22;;;1.54;79.85
12471;BME280;36499;46.484;13.832;2022-12-18T02:10:53;94256.56;;;1.70;79.03
12471;BME280;36499;46.484;13.832;2022-12-18T02:13:32;94258.88;;;1.73;78.90
12471;BME280;36499;46.484;13.832;2022-12-18T02:16:10;94257.72;;;1.57;79.94
12471;BME280;36499;46.484;13.832;2022-12-18T02:18:45;94261.72;;;1.80;79.04
12471;BME280;36499;46.484;13.832;2022-12-18T02:21:28;94265.22;;;1.79;78.59
12471;BME280;36499;46.484;13.832;2022-12-18T02:24:17;94262.44;;;1.82;78.36
12471;BME280;36499;46.484;13.832;2022-12-18T02:26:48;94271.44;;;1.67;79.70
12471;BME280;36499;46.484;13.832;2022-12-18T02:29:23;94271.63;;;1.84;79.12
12471;BME280;36499;46.484;13.832;2022-12-18T02:31:57;94276.88;;;1.83;79.03
12471;BME280;36499;46.484;13.832;2022-12-18T02:34:30;94274.75;;;1.88;79.48
12471;BME280;36499;46.484;13.832;2022-12-18T02:37:03;94270.94;;;1.82;80.00
12471;BME280;36499;46.484;13.832;2022-12-18T02:39:34;94277.59;;;1.85;79.09
12471;BME280;36499;46.484;13.832;2022-12-18T02:42:04;94281.91;;;1.84;79.06
12471;BME280;36499;46.484;13.832;2022-12-18T02:44:33;94279.72;;;1.80;79.41
12471;BME280;36499;46.484;13.832;2022-12-18T02:47:01;94295.75;;;1.63;79.94
12471;BME280;36499;46.484;13.832;2022-12-18T02:49:36;94291.47;;;1.73;80.23
12471;BME280;36499;46.484;13.832;2022-12-18T02:52:18;94302.03;;;1.79;79.80
12471;BME280;36499;46.484;13.832;2022-12-18T02:55:01;94303.09;;;1.67;80.08
12471;BME280;36499;46.484;13.832;2022-12-18T02:57:42;94289.59;;;1.75;80.09
12471;BME280;36499;46.484;13.832;2022-12-18T03:00:17;94292.28;;;1.73;79.85
12471;BME280;36499;46.484;13.832;2022-12-18T03:02:51;94287.97;;;1.74;79.19
12471;BME280;36499;46.484;13.832;2022-12-18T03:05:29;94284.84;;;1.70;80.09
12471;BME280;36499;46.484;13.832;2022-12-18T03:08:03;94290.38;;;1.75;79.70
12471;BME280;36499;46.484;13.832;2022-12-18T03:10:38;94288.69;;;1.85;79.91
12471;BME280;36499;46.484;13.832;2022-12-18T03:13:16;94297.16;;;1.46;79.97
12471;BME280;36499;46.484;13.832;2022-12-18T03:15:50;94292.75;;;1.58;80.80
12471;BME280;36499;46.484;13.832;2022-12-18T03:18:23;94298.50;;;1.71;79.54
12471;BME280;36499;46.484;13.832;2022-12-18T03:20:56;94301.75;;;1.73;80.39
12471;BME280;36499;46.484;13.832;2022-12-18T03:23:29;94300.97;;;1.82;79.58
12471;BME280;36499;46.484;13.832;2022-12-18T03:26:04;94305.31;;;1.81;80.79
12471;BME280;36499;46.484;13.832;2022-12-18T03:28:38;94309.75;;;1.79;80.56
12471;BME280;36499;46.484;13.832;2022-12-18T03:31:11;94313.94;;;1.80;80.52
12471;BME280;36499;46.484;13.832;2022-12-18T03:33:45;94321.41;;;1.83;80.01
12471;BME280;36499;46.484;13.832;2022-12-18T03:36:14;94318.72;;;1.85;80.51
12471;BME280;36499;46.484;13.832;2022-12-18T03:38:42;94323.69;;;1.86;80.49
12471;BME280;36499;46.484;13.832;2022-12-18T03:41:19;94330.41;;;1.68;81.31
12471;BME280;36499;46.484;13.832;2022-12-18T03:43:57;94328.09;;;1.65;81.65
12471;BME280;36499;46.484;13.832;2022-12-18T03:46:37;94316.22;;;1.74;81.38
12471;BME280;36499;46.484;13.832;2022-12-18T03:49:12;94319.44;;;1.66;81.05
12471;BME280;36499;46.484;13.832;2022-12-18T03:51:49;94328.78;;;1.67;81.65
12471;BME280;36499;46.484;13.832;2022-12-18T03:54:20;94333.13;;;1.67;82.07
12471;BME280;36499;46.484;13.832;2022-12-18T03:56:53;94329.03;;;1.64;81.99
12471;BME280;36499;46.484;13.832;2022-12-18T03:59:26;94327.09;;;1.57;82.68
12471;BME280;36499;46.484;13.832;2022-12-18T04:01:57;94337.81;;;1.62;82.68
12471;BME280;36499;46.484;13.832;2022-12-18T04:04:28;94338.63;;;1.62;82.30
12471;BME280;36499;46.484;13.832;2022-12-18T04:06:58;94346.84;;;1.56;82.64
12471;BME280;36499;46.484;13.832;2022-12-18T04:09:26;94347.28;;;1.61;82.29
12471;BME280;36499;46.484;13.832;2022-12-18T04:11:54;94349.59;;;1.64;82.47
12471;BME280;36499;46.484;13.832;2022-12-18T04:14:21;94354.50;;;1.67;81.96
12471;BME280;36499;46.484;13.832;2022-12-18T04:16:49;94347.47;;;1.69;82.37
12471;BME280;36499;46.484;13.832;2022-12-18T04:19:16;94350.28;;;1.66;82.15
12471;BME280;36499;46.484;13.832;2022-12-18T04:21:43;94350.69;;;1.71;81.50
12471;BME280;36499;46.484;13.832;2022-12-18T04:24:11;94358.56;;;1.70;81.32
12471;BME280;36499;46.484;13.832;2022-12-18T04:26:38;94359.03;;;1.64;80.94
12471;BME280;36499;46.484;13.832;2022-12-18T04:31:35;94366.25;;;1.70;80.59
12471;BME280;36499;46.484;13.832;2022-12-18T04:34:03;94362.75;;;1.71;80.54
12471;BME280;36499;46.484;13.832;2022-12-18T04:36:30;94359.63;;;1.67;80.89
12471;BME280;36499;46.484;13.832;2022-12-18T04:38:57;94364.19;;;1.64;81.21
12471;BME280;36499;46.484;13.832;2022-12-18T04:41:24;94366.38;;;1.68;80.74
12471;BME280;36499;46.484;13.832;2022-12-18T04:43:52;94366.19;;;1.60;81.29
12471;BME280;36499;46.484;13.832;2022-12-18T04:46:19;94379.88;;;1.61;80.95
12471;BME280;36499;46.484;13.832;2022-12-18T04:48:46;94388.13;;;1.64;80.92
12471;BME280;36499;46.484;13.832;2022-12-18T04:51:15;94394.25;;;1.63;81.04
12471;BME280;36499;46.484;13.832;2022-12-18T04:53:42;94398.00;;;1.59;80.72
12471;BME280;36499;46.484;13.832;2022-12-18T04:56:12;94404.50;;;1.63;81.29
12471;BME280;36499;46.484;13.832;2022-12-18T04:58:42;94407.75;;;1.65;81.31
12471;BME280;36499;46.484;13.832;2022-12-18T05:01:11;94394.78;;;1.67;80.71
12471;BME280;36499;46.484;13.832;2022-12-18T05:03:39;94404.13;;;1.68;81.15
12471;BME280;36499;46.484;13.832;2022-12-18T05:06:08;94403.69;;;1.63;80.94
12471;BME280;36499;46.484;13.832;2022-12-18T05:08:36;94400.16;;;1.64;80.70
12471;BME280;36499;46.484;13.832;2022-12-18T05:11:06;94403.56;;;1.64;81.16
12471;BME280;36499;46.484;13.832;2022-12-18T05:13:35;94403.31;;;1.67;80.55
12471;BME280;36499;46.484;13.832;2022-12-18T05:16:04;94399.03;;;1.57;81.01
12471;BME280;36499;46.484;13.832;2022-12-18T05:18:32;94393.41;;;1.63;81.00
12471;BME280;36499;46.484;13.832;2022-12-18T05:20:59;94399.59;;;1.60;80.72
12471;BME280;36499;46.484;13.832;2022-12-18T05:23:27;94401.75;;;1.55;80.86
12471;BME280;36499;46.484;13.832;2022-12-18T05:25:58;94412.03;;;1.55;80.41
12471;BME280;36499;46.484;13.832;2022-12-18T05:28:28;94413.16;;;1.62;80.19
12471;BME280;36499;46.484;13.832;2022-12-18T05:30:57;94417.22;;;1.65;79.98
12471;BME280;36499;46.484;13.832;2022-12-18T05:33:29;94417.38;;;1.63;80.25
12471;BME280;36499;46.484;13.832;2022-12-18T05:35:59;94422.63;;;1.62;79.60
12471;BME280;36499;46.484;13.832;2022-12-18T05:38:28;94424.25;;;1.63;79.73
12471;BME280;36499;46.484;13.832;2022-12-18T05:40:57;94423.44;;;1.62;80.01
12471;BME280;36499;46.484;13.832;2022-12-18T05:43:25;94426.00;;;1.62;79.47
12471;BME280;36499;46.484;13.832;2022-12-18T05:45:53;94430.97;;;1.54;80.09
12471;BME280;36499;46.484;13.832;2022-12-18T05:48:21;94431.63;;;1.56;80.26
12471;BME280;36499;46.484;13.832;2022-12-18T05:50:50;94432.84;;;1.52;80.09
12471;BME280;36499;46.484;13.832;2022-12-18T05:53:20;94434.72;;;1.50;79.66
12471;BME280;36499;46.484;13.832;2022-12-18T05:55:47;94436.91;;;1.55;79.61
12471;BME280;36499;46.484;13.832;2022-12-18T05:58:16;94433.06;;;1.49;80.16
12471;BME280;36499;46.484;13.832;2022-12-18T06:00:45;94438.00;;;1.52;79.93
12471;BME280;36499;46.484;13.832;2022-12-18T06:03:13;94434.97;;;1.47;79.83
12471;BME280;36499;46.484;13.832;2022-12-18T06:05:43;94434.16;;;1.47;80.24
12471;BME280;36499;46.484;13.832;2022-12-18T06:08:12;94430.66;;;1.48;79.96
12471;BME280;36499;46.484;13.832;2022-12-18T06:10:40;94436.09;;;1.54;80.25
12471;BME280;36499;46.484;13.832;2022-12-18T06:13:07;94428.75;;;1.50;79.91
12471;BME280;36499;46.484;13.832;2022-12-18T06:15:37;94436.34;;;1.51;79.85
12471;BME280;36499;46.484;13.832;2022-12-18T06:18:04;94447.09;;;1.45;80.24
12471;BME280;36499;46.484;13.832;2022-12-18T06:20:32;94443.59;;;1.46;80.71
12471;BME280;36499;46.484;13.832;2022-12-18T06:23:02;94441.28;;;1.43;80.18
12471;BME280;36499;46.484;13.832;2022-12-18T06:25:30;94450.19;;;1.39;80.11
12471;BME280;36499;46.484;13.832;2022-12-18T06:27:57;94462.78;;;1.42;79.50
12471;BME280;36499;46.484;13.832;2022-12-18T06:30:24;94468.41;;;1.36;79.42
12471;BME280;36499;46.484;13.832;2022-12-18T06:32:53;94468.47;;;1.45;79.50
12471;BME280;36499;46.484;13.832;2022-12-18T06:35:20;94466.28;;;1.41;79.21
12471;BME280;36499;46.484;13.832;2022-12-18T06:37:47;94460.66;;;1.47;78.94
12471;BME280;36499;46.484;13.832;2022-12-18T06:40:14;94458.34;;;1.44;79.65
12471;BME280;36499;46.484;13.832;2022-12-18T06:42:41;94461.59;;;1.46;78.99
12471;BME280;36499;46.484;13.832;2022-12-18T06:45:09;94463.03;;;1.39;79.79
12471;BME280;36499;46.484;13.832;2022-12-18T06:47:37;94471.31;;;1.42;79.03
12471;BME280;36499;46.484;13.832;2022-12-18T06:50:07;94474.31;;;1.48;79.55
12471;BME280;36499;46.484;13.832;2022-12-18T06:52:34;94480.41;;;1.47;79.97
12471;BME280;36499;46.484;13.832;2022-12-18T06:55:03;94486.09;;;1.50;79.89
12471;BME280;36499;46.484;13.832;2022-12-18T06:57:30;94487.75;;;1.51;79.12
12471;BME280;36499;46.484;13.832;2022-12-18T06:59:57;94492.78;;;1.41;79.72
12471;BME280;36499;46.484;13.832;2022-12-18T07:02:24;94499.44;;;1.44;79.58
12471;BME280;36499;46.484;13.832;2022-12-18T07:04:51;94500.63;;;1.40;79.68
12471;BME280;36499;46.484;13.832;2022-12-18T07:07:20;94507.78;;;1.36;79.92
12471;BME280;36499;46.484;13.832;2022-12-18T07:09:48;94511.22;;;1.47;79.57
12471;BME280;36499;46.484;13.832;2022-12-18T07:12:16;94502.22;;;1.52;80.28
12471;BME280;36499;46.484;13.832;2022-12-18T07:14:45;94510.25;;;1.59;80.35
12471;BME280;36499;46.484;13.832;2022-12-18T07:17:12;94516.06;;;1.61;80.44
12471;BME280;36499;46.484;13.832;2022-12-18T07:19:39;94516.78;;;1.63;79.19
12471;BME280;36499;46.484;13.832;2022-12-18T07:22:06;94517.34;;;1.66;79.32
12471;BME280;36499;46.484;13.832;2022-12-18T07:24:35;94521.41;;;1.69;79.14
12471;BME280;36499;46.484;13.832;2022-12-18T07:27:03;94531.56;;;1.70;79.32
12471;BME280;36499;46.484;13.832;2022-12-18T07:29:30;94537.38;;;1.72;79.70
12471;BME280;36499;46.484;13.832;2022-12-18T07:31:57;94539.72;;;1.75;79.57
12471;BME280;36499;46.484;13.832;2022-12-18T07:34:24;94545.56;;;1.77;79.97
12471;BME280;36499;46.484;13.832;2022-12-18T07:36:51;94542.97;;;1.77;80.05
12471;BME280;36499;46.484;13.832;2022-12-18T07:39:18;94548.94;;;1.78;79.28
12471;BME280;36499;46.484;13.832;2022-12-18T07:41:47;94540.97;;;1.81;79.73
12471;BME280;36499;46.484;13.832;2022-12-18T07:44:34;94541.66;;;1.83;80.36
12471;BME280;36499;46.484;13.832;2022-12-18T07:47:01;94554.47;;;2.15;83.47
12471;BME280;36499;46.484;13.832;2022-12-18T07:49:28;94542.91;;;2.30;81.61
12471;BME280;36499;46.484;13.832;2022-12-18T07:51:57;94549.72;;;2.31;80.64
12471;BME280;36499;46.484;13.832;2022-12-18T07:54:24;94550.91;;;2.27;80.17
12471;BME280;36499;46.484;13.832;2022-12-18T07:56:53;94552.75;;;2.25;80.19
12471;BME280;36499;46.484;13.832;2022-12-18T07:59:20;94557.00;;;2.56;79.35
12471;BME280;36499;46.484;13.832;2022-12-18T08:01:47;94565.09;;;2.72;78.37
12471;BME280;36499;46.484;13.832;2022-12-18T08:04:14;94561.16;;;2.78;77.10
12471;BME280;36499;46.484;13.832;2022-12-18T08:06:42;94562.78;;;2.69;76.92
12471;BME280;36499;46.484;13.832;2022-12-18T08:09:10;94563.28;;;2.63;76.58
12471;BME280;36499;46.484;13.832;2022-12-18T08:11:37;94562.53;;;2.52;76.59
12471;BME280;36499;46.484;13.832;2022-12-18T08:14:06;94557.06;;;2.35;76.54
12471;BME280;36499;46.484;13.832;2022-12-18T08:16:33;94560.56;;;2.34;76.86
12471;BME280;36499;46.484;13.832;2022-12-18T08:19:00;94558.25;;;2.31;76.92
12471;BME280;36499;46.484;13.832;2022-12-18T08:21:30;94568.91;;;2.27;76.46
12471;BME280;36499;46.484;13.832;2022-12-18T08:24:00;94577.56;;;2.26;76.82
12471;BME280;36499;46.484;13.832;2022-12-18T08:26:30;94584.03;;;2.20;77.31
12471;BME280;36499;46.484;13.832;2022-12-18T08:28:59;94581.31;;;2.22;77.14
12471;BME280;36499;46.484;13.832;2022-12-18T08:31:30;94580.28;;;2.24;76.52
12471;BME280;36499;46.484;13.832;2022-12-18T08:33:59;94589.50;;;2.27;77.30
12471;BME280;36499;46.484;13.832;2022-12-18T08:36:26;94593.94;;;2.25;76.67
12471;BME280;36499;46.484;13.832;2022-12-18T08:38:53;94595.44;;;2.27;76.85
12471;BME280;36499;46.484;13.832;2022-12-18T08:41:21;94595.72;;;2.24;77.23
12471;BME280;36499;46.484;13.832;2022-12-18T08:43:48;94598.13;;;2.26;76.18
12471;BME280;36499;46.484;13.832;2022-12-18T08:46:37;94593.94;;;2.25;76.86
12471;BME280;36499;46.484;13.832;2022-12-18T08:49:06;94595.44;;;2.27;76.31
12471;BME280;36499;46.484;13.832;2022-12-18T08:51:34;94599.47;;;2.20;76.86
12471;BME280;36499;46.484;13.832;2022-12-18T08:54:03;94593.25;;;2.23;77.03
12471;BME280;36499;46.484;13.832;2022-12-18T08:56:30;94592.88;;;2.27;76.31
12471;BME280;36499;46.484;13.832;2022-12-18T08:58:58;94602.91;;;2.30;76.61
12471;BME280;36499;46.484;13.832;2022-12-18T09:01:26;94603.16;;;2.27;75.74
12471;BME280;36499;46.484;13.832;2022-12-18T09:03:54;94604.66;;;2.30;75.54
12471;BME280;36499;46.484;13.832;2022-12-18T09:06:23;94599.41;;;2.31;76.40
12471;BME280;36499;46.484;13.832;2022-12-18T09:08:52;94595.50;;;2.37;76.75
12471;BME280;36499;46.484;13.832;2022-12-18T09:11:22;94604.97;;;2.36;75.74
12471;BME280;36499;46.484;13.832;2022-12-18T09:13:50;94608.09;;;2.40;76.06
12471;BME280;36499;46.484;13.832;2022-12-18T09:16:18;94617.47;;;2.41;75.84
12471;BME280;36499;46.484;13.832;2022-12-18T09:18:45;94617.97;;;2.35;74.99
12471;BME280;36499;46.484;13.832;2022-12-18T09:21:16;94612.88;;;2.45;75.74
12471;BME280;36499;46.484;13.832;2022-12-18T09:23:44;94617.22;;;2.44;75.77
12471;BME280;36499;46.484;13.832;2022-12-18T09:26:11;94615.97;;;2.38;74.98
12471;BME280;36499;46.484;13.832;2022-12-18T09:28:38;94623.69;;;2.38;75.34
12471;BME280;36499;46.484;13.832;2022-12-18T09:31:08;94622.88;;;2.38;74.61
12471;BME280;36499;46.484;13.832;2022-12-18T09:33:35;94620.50;;;2.46;74.85
12471;BME280;36499;46.484;13.832;2022-12-18T09:36:05;94623.47;;;2.51;74.75
12471;BME280;36499;46.484;13.832;2022-12-18T09:38:34;94623.00;;;2.57;75.11
12471;BME280;36499;46.484;13.832;2022-12-18T09:41:16;94619.22;;;2.61;74.60
12471;BME280;36499;46.484;13.832;2022-12-18T09:43:49;94615.56;;;2.64;74.30
12471;BME280;36499;46.484;13.832;2022-12-18T09:46:27;94613.94;;;2.63;73.99
12471;BME280;36499;46.484;13.832;2022-12-18T09:49:02;94614.19;;;2.60;73.76
12471;BME280;36499;46.484;13.832;2022-12-18T09:51:37;94607.84;;;2.64;73.06
12471;BME280;36499;46.484;13.832;2022-12-18T09:54:16;94605.84;;;2.67;73.12
12471;BME280;36499;46.484;13.832;2022-12-18T09:56:45;94603.00;;;2.70;73.19
12471;BME280;36499;46.484;13.832;2022-12-18T09:59:22;94605.47;;;2.72;73.20
12471;BME280;36499;46.484;13.832;2022-12-18T10:01:51;94599.94;;;2.76;72.99
12471;BME280;36499;46.484;13.832;2022-12-18T10:04:18;94609.03;;;2.80;72.64
12471;BME280;36499;46.484;13.832;2022-12-18T10:06:53;94605.63;;;2.80;72.38
12471;BME280;36499;46.484;13.832;2022-12-18T10:09:33;94604.06;;;2.68;72.64
12471;BME280;36499;46.484;13.832;2022-12-18T10:12:12;94600.41;;;2.70;72.89
12471;BME280;36499;46.484;13.832;2022-12-18T10:14:54;94599.94;;;2.76;72.55
12471;BME280;36499;46.484;13.832;2022-12-18T10:17:35;94599.66;;;2.79;72.99
12471;BME280;36499;46.484;13.832;2022-12-18T10:20:14;94608.16;;;2.70;72.55
12471;BME280;36499;46.484;13.832;2022-12-18T10:22:51;94600.59;;;2.78;72.00
12471;BME280;36499;46.484;13.832;2022-12-18T10:25:29;94598.47;;;2.83;71.78
12471;BME280;36499;46.484;13.832;2022-12-18T10:28:12;94595.91;;;2.83;71.13
12471;BME280;36499;46.484;13.832;2022-12-18T10:30:41;94588.84;;;2.85;71.63
12471;BME280;36499;46.484;13.832;2022-12-18T10:33:12;94592.38;;;2.84;71.21
12471;BME280;36499;46.484;13.832;2022-12-18T10:35:41;94600.78;;;2.86;71.46
12471;BME280;36499;46.484;13.832;2022-12-18T10:38:24;94600.94;;;2.95;71.99
12471;BME280;36499;46.484;13.832;2022-12-18T10:40:56;94601.88;;;2.94;71.16
12471;BME280;36499;46.484;13.832;2022-12-18T10:43:27;94590.78;;;2.93;70.74
12471;BME280;36499;46.484;13.832;2022-12-18T10:46:14;94591.75;;;2.92;70.51
12471;BME280;36499;46.484;13.832;2022-12-18T10:48:52;94589.66;;;2.86;71.26
12471;BME280;36499;46.484;13.832;2022-12-18T10:51:23;94593.50;;;2.92;70.29
12471;BME280;36499;46.484;13.832;2022-12-18T10:53:57;94583.84;;;2.94;70.81
12471;BME280;36499;46.484;13.832;2022-12-18T10:56:30;94583.03;;;2.93;70.60
12471;BME280;36499;46.484;13.832;2022-12-18T10:59:01;94590.09;;;2.91;70.11
12471;BME280;36499;46.484;13.832;2022-12-18T11:01:32;94585.50;;;2.95;70.35
12471;BME280;36499;46.484;13.832;2022-12-18T11:04:18;94581.00;;;2.87;69.26
12471;BME280;36499;46.484;13.832;2022-12-18T11:06:56;94574.91;;;2.88;70.30
12471;BME280;36499;46.484;13.832;2022-12-18T11:09:26;94571.94;;;2.93;70.15
12471;BME280;36499;46.484;13.832;2022-12-18T11:11:58;94562.97;;;2.87;69.94
12471;BME280;36499;46.484;13.832;2022-12-18T11:14:27;94573.53;;;2.84;69.37
12471;BME280;36499;46.484;13.832;2022-12-18T11:16:58;94570.91;;;2.74;70.15
12471;BME280;36499;46.484;13.832;2022-12-18T11:19:34;94578.88;;;2.71;69.74
12471;BME280;36499;46.484;13.832;2022-12-18T11:22:19;94566.06;;;2.81;70.04
12471;BME280;36499;46.484;13.832;2022-12-18T11:24:55;94584.91;;;2.81;69.28
12471;BME280;36499;46.484;13.832;2022-12-18T11:27:25;94568.78;;;2.79;70.55
12471;BME280;36499;46.484;13.832;2022-12-18T11:29:53;94565.94;;;2.82;69.45
12471;BME280;36499;46.484;13.832;2022-12-18T11:32:37;94577.19;;;2.81;70.46
12471;BME280;36499;46.484;13.832;2022-12-18T11:35:15;94567.75;;;2.92;70.22
12471;BME280;36499;46.484;13.832;2022-12-18T11:37:49;94573.44;;;2.95;69.89
12471;BME280;36499;46.484;13.832;2022-12-18T11:40:29;94573.88;;;3.00;70.07
12471;BME280;36499;46.484;13.832;2022-12-18T11:43:07;94572.53;;;3.06;69.56
12471;BME280;36499;46.484;13.832;2022-12-18T11:45:46;94563.59;;;3.10;69.00
12471;BME280;36499;46.484;13.832;2022-12-18T11:48:21;94570.00;;;3.15;69.04
12471;BME280;36499;46.484;13.832;2022-12-18T11:50:52;94567.16;;;3.18;69.03
12471;BME280;36499;46.484;13.832;2022-12-18T11:53:21;94565.50;;;3.17;69.85
12471;BME280;36499;46.484;13.832;2022-12-18T11:56:02;94565.94;;;3.22;69.70
12471;BME280;36499;46.484;13.832;2022-12-18T11:58:46;94567.56;;;3.23;68.94
12471;BME280;36499;46.484;13.832;2022-12-18T12:01:30;94559.16;;;3.21;69.34
12471;BME280;36499;46.484;13.832;2022-12-18T12:04:37;94569.19;;;3.24;69.23
12471;BME280;36499;46.484;13.832;2022-12-18T12:07:31;94571.25;;;3.30;68.86
12471;BME280;36499;46.484;13.832;2022-12-18T12:10:20;94571.09;;;3.32;68.81
12471;BME280;36499;46.484;13.832;2022-12-18T12:13:22;94577.50;;;3.37;68.79
12471;BME280;36499;46.484;13.832;2022-12-18T12:16:04;94556.72;;;3.39;68.43
12471;BME280;36499;46.484;13.832;2022-12-18T12:19:01;94559.31;;;3.39;68.30
12471;BME280;36499;46.484;13.832;2022-12-18T12:21:39;94564.72;;;3.36;68.56
12471;BME280;36499;46.484;13.832;2022-12-18T12:24:25;94562.31;;;3.44;68.96
12471;BME280;36499;46.484;13.832;2022-12-18T12:27:04;94556.88;;;3.47;68.11
12471;BME280;36499;46.484;13.832;2022-12-18T12:29:50;94555.66;;;3.51;68.09
12471;BME280;36499;46.484;13.832;2022-12-18T12:32:38;94546.31;;;3.50;67.69
12471;BME280;36499;46.484;13.832;2022-12-18T12:35:29;94543.59;;;3.52;68.55
12471;BME280;36499;46.484;13.832;2022-12-18T12:38:09;94543.47;;;3.53;67.84
12471;BME280;36499;46.484;13.832;2022-12-18T12:40:44;94540.19;;;3.51;69.47
12471;BME280;36499;46.484;13.832;2022-12-18T12:43:24;94542.38;;;3.56;68.46
12471;BME280;36499;46.484;13.832;2022-12-18T12:45:58;94542.13;;;3.49;68.56
12471;BME280;36499;46.484;13.832;2022-12-18T12:48:40;94542.66;;;3.53;68.63
12471;BME280;36499;46.484;13.832;2022-12-18T12:51:14;94529.91;;;3.51;67.85
12471;BME280;36499;46.484;13.832;2022-12-18T12:53:43;94532.63;;;3.50;67.41
12471;BME280;36499;46.484;13.832;2022-12-18T12:56:16;94544.97;;;3.46;68.08
12471;BME280;36499;46.484;13.832;2022-12-18T12:58:58;94539.13;;;3.44;67.63
12471;BME280;36499;46.484;13.832;2022-12-18T13:01:36;94551.06;;;3.45;67.92
12471;BME280;36499;46.484;13.832;2022-12-18T13:04:21;94551.69;;;3.28;66.67
12471;BME280;36499;46.484;13.832;2022-12-18T13:07:00;94560.94;;;3.30;66.70
12471;BME280;36499;46.484;13.832;2022-12-18T13:09:31;94557.81;;;3.27;66.41
12471;BME280;36499;46.484;13.832;2022-12-18T13:12:04;94560.25;;;3.19;65.55
12471;BME280;36499;46.484;13.832;2022-12-18T13:15:25;94567.38;;;3.06;66.11
12471;BME280;36499;46.484;13.832;2022-12-18T13:18:17;94572.53;;;3.06;65.92
12471;BME280;36499;46.484;13.832;2022-12-18T13:20:49;94571.84;;;3.04;66.66
12471;BME280;36499;46.484;13.832;2022-12-18T13:23:31;94573.72;;;3.02;67.29
12471;BME280;36499;46.484;13.832;2022-12-18T13:26:28;94574.66;;;3.01;67.46
12471;BME280;36499;46.484;13.832;2022-12-18T13:28:58;94579.81;;;3.01;67.79